Time;durP1;ratioP1;P1;durP2;ratioP2;P2;SDS_P1;SDS_P2;PMS_P1;PMS_P2;Temp;Humidity;BMP_temperature;BMP_pressure;BME280_temperature;BME280_humidity;BME280_pressure;Samples;Min_cycle;Max_cycle;Signal;HPM_P1;HPM_P2
2021/12/07 00:01:21;;;;;;;19.70;8.50;;;;;;;-4.66;100.00;99866.13;5054386;28;20041;-69
2021/12/07 00:03:46;;;;;;;17.42;6.25;;;;;;;-4.64;100.00;99864.31;5036260;28;20422;-69
2021/12/07 00:06:13;;;;;;;26.30;8.80;;;;;;;-4.72;100.00;99850.50;5025368;28;20109;-71
2021/12/07 00:08:40;;;;;;;19.02;7.18;;;;;;;-4.61;100.00;99852.78;5038304;28;20068;-70
2021/12/07 00:11:06;;;;;;;26.70;10.27;;;;;;;-4.61;100.00;99852.78;5073201;28;20411;-71
2021/12/07 00:13:36;;;;;;;19.77;7.57;;;;;;;-4.79;100.00;99817.38;5038966;28;20079;-69
2021/12/07 00:16:07;;;;;;;18.25;6.32;;;;;;;-4.63;100.00;99844.94;5070817;28;20037;-70
2021/12/07 00:18:33;;;;;;;20.42;8.23;;;;;;;-4.62;100.00;99846.66;5038270;28;20140;-70
2021/12/07 00:21:00;;;;;;;24.63;8.07;;;;;;;-4.65;100.00;99836.19;5054002;28;20049;-70
2021/12/07 00:23:26;;;;;;;31.88;11.18;;;;;;;-4.58;100.00;99836.00;5054362;28;20055;-69
2021/12/07 00:25:52;;;;;;;18.63;7.38;;;;;;;-4.57;100.00;99837.72;5064812;28;20381;-69
2021/12/07 00:28:22;;;;;;;16.75;6.57;;;;;;;-4.89;100.00;99781.66;5034377;28;20055;-70
2021/12/07 00:30:50;;;;;;;22.42;8.00;;;;;;;-4.56;100.00;99828.91;5034118;28;20048;-70
2021/12/07 00:33:35;;;;;;;20.27;8.18;;;;;;;-4.61;100.00;99822.03;5051927;28;20361;-69
2021/12/07 00:36:01;;;;;;;22.00;7.65;;;;;;;-4.62;100.00;99807.09;5033536;28;20041;-71
2021/12/07 00:38:27;;;;;;;29.55;8.57;;;;;;;-4.79;100.00;99775.19;5034541;28;20052;-70
2021/12/07 00:40:57;;;;;;;17.88;6.57;;;;;;;-4.62;100.00;99801.81;5034055;28;20071;-71
2021/12/07 00:43:25;;;;;;;19.90;7.75;;;;;;;-4.57;100.00;99803.44;5034231;28;20573;-70
2021/12/07 00:45:54;;;;;;;26.73;8.93;;;;;;;-4.82;100.00;99763.88;5051742;28;20087;-70
2021/12/07 00:48:20;;;;;;;20.10;8.00;;;;;;;-4.58;100.00;99794.66;5034063;28;20036;-71
2021/12/07 00:50:48;;;;;;;18.05;7.13;;;;;;;-4.74;100.00;99762.69;5034080;28;20068;-72
2021/12/07 00:53:15;;;;;;;10.95;3.60;;;;;;;-4.55;100.00;99796.34;5017331;28;20044;-68
2021/12/07 00:55:45;;;;;;;20.83;8.05;;;;;;;-4.53;100.00;99786.56;5033519;28;20036;-69
2021/12/07 00:58:17;;;;;;;23.60;8.20;;;;;;;-4.54;100.00;99775.16;5051613;28;20051;-70
2021/12/07 01:00:47;;;;;;;12.27;3.75;;;;;;;-4.53;100.00;99773.38;5017781;28;20075;-69
2021/12/07 01:03:13;;;;;;;23.27;8.60;;;;;;;-4.50;100.00;99774.13;5054472;28;20083;-70
2021/12/07 01:05:46;;;;;;;26.63;9.50;;;;;;;-4.47;100.00;99773.19;5054095;28;20048;-71
2021/12/07 01:08:24;;;;;;;17.98;6.03;;;;;;;-4.52;100.00;99762.78;5054142;28;20049;-71
2021/12/07 01:24:40;;;;;;;20.75;7.68;;;;;;;-4.41;100.00;99760.63;5032749;28;20051;-70
2021/12/07 01:27:07;;;;;;;16.90;5.50;;;;;;;-4.40;100.00;99766.78;5016666;28;20424;-69
2021/12/07 01:29:34;;;;;;;19.05;6.85;;;;;;;-4.37;100.00;99761.38;5016748;28;20057;-69
2021/12/07 01:34:53;;;;;;;15.80;6.55;;;;;;;-4.38;100.00;99743.84;5033011;28;20165;-70
2021/12/07 01:51:12;;;;;;;18.63;7.13;;;;;;;-4.28;100.00;99729.38;4981025;28;20145;-69
2021/12/07 02:01:51;;;;;;;17.67;6.65;;;;;;;-4.42;100.00;99681.56;5032559;28;20415;-69
2021/12/07 02:04:17;;;;;;;27.77;7.43;;;;;;;-4.28;100.00;99702.13;5015736;28;20094;-70
2021/12/07 02:06:43;;;;;;;19.15;7.97;;;;;;;-4.30;100.00;99689.00;5000021;28;20057;-71
2021/12/07 02:09:12;;;;;;;20.25;7.60;;;;;;;-4.27;100.00;99694.16;5033181;28;20037;-70
2021/12/07 02:11:46;;;;;;;18.88;7.90;;;;;;;-4.27;100.00;99693.31;5032666;28;20312;-70
2021/12/07 02:14:18;;;;;;;23.70;9.25;;;;;;;-4.41;100.00;99662.16;5032978;28;20048;-72
2021/12/07 02:16:49;;;;;;;21.65;7.95;;;;;;;-4.23;100.00;99697.56;5032646;28;20068;-71
2021/12/07 02:19:15;;;;;;;17.20;6.32;;;;;;;-4.23;100.00;99690.50;5032234;28;20087;-70
2021/12/07 02:21:41;;;;;;;19.40;7.55;;;;;;;-4.20;100.00;99692.19;5001728;28;20546;-71
2021/12/07 02:24:16;;;;;;;15.05;6.45;;;;;;;-4.23;100.00;99679.94;5050578;28;20075;-70
2021/12/07 02:26:42;;;;;;;20.73;5.75;;;;;;;-4.28;100.00;99679.25;5015968;28;20045;-69
2021/12/07 02:29:09;;;;;;;18.35;7.38;;;;;;;-4.20;100.00;99678.97;5000213;28;20041;-71
2021/12/07 02:31:35;;;;;;;18.50;7.63;;;;;;;-4.18;100.00;99675.34;4999697;28;20057;-69
2021/12/07 02:34:03;;;;;;;21.63;8.95;;;;;;;-4.14;100.00;99679.56;5016178;28;20124;-71
2021/12/07 02:36:29;;;;;;;18.10;7.80;;;;;;;-4.14;100.00;99678.72;5048873;28;20117;-72
2021/12/07 02:38:56;;;;;;;16.98;6.20;;;;;;;-4.14;100.00;99674.28;5032640;28;20177;-70
2021/12/07 02:41:22;;;;;;;17.48;6.53;;;;;;;-4.16;100.00;99660.31;5030526;28;20082;-70
2021/12/07 02:43:48;;;;;;;19.95;7.47;;;;;;;-4.13;100.00;99660.19;5071442;28;20055;-70
2021/12/07 02:46:14;;;;;;;16.60;7.07;;;;;;;-4.15;100.00;99645.34;5039367;28;20049;-69
2021/12/07 02:48:40;;;;;;;19.45;6.75;;;;;;;-4.12;100.00;99653.13;5055399;28;20036;-70
2021/12/07 02:51:06;;;;;;;20.25;7.63;;;;;;;-4.14;100.00;99642.63;5038615;28;20059;-71
2021/12/07 02:53:35;;;;;;;18.95;7.57;;;;;;;-4.18;100.00;99637.53;5055920;28;20041;-71
2021/12/07 02:56:03;;;;;;;14.32;5.63;;;;;;;-4.15;100.00;99634.78;5055541;28;20190;-69
2021/12/07 02:58:34;;;;;;;12.50;5.03;;;;;;;-4.07;100.00;99642.41;5072541;28;20121;-70
2021/12/07 03:01:08;;;;;;;11.13;4.60;;;;;;;-4.06;100.00;99633.53;5071709;28;20055;-71
2021/12/07 03:03:39;;;;;;;18.45;6.97;;;;;;;-4.14;100.00;99624.16;5040071;28;20044;-70
2021/12/07 03:06:23;;;;;;;18.88;6.43;;;;;;;-4.05;100.00;99627.38;5023673;28;20076;-71
2021/12/07 03:28:00;;;;;;;13.57;5.15;;;;;;;-4.04;100.00;99579.78;5019482;28;20051;-71
2021/12/07 03:30:26;;;;;;;11.98;4.68;;;;;;;-4.16;100.00;99554.75;5028631;28;20048;-70
2021/12/07 03:32:53;;;;;;;19.00;6.65;;;;;;;-4.16;100.00;99554.75;5019405;28;20080;-71
2021/12/07 03:35:19;;;;;;;18.02;6.32;;;;;;;-4.16;100.00;99546.81;5035289;28;20044;-72
2021/12/07 03:37:45;;;;;;;17.80;7.18;;;;;;;-3.99;100.00;99567.25;5036337;28;20049;-72
2021/12/07 03:40:12;;;;;;;16.80;6.20;;;;;;;-4.14;100.00;99538.81;5052376;28;20111;-71
2021/12/07 03:42:38;;;;;;;24.42;8.30;;;;;;;-4.02;100.00;99553.31;5053453;28;20094;-70
2021/12/07 03:45:06;;;;;;;11.25;4.47;;;;;;;-3.96;100.00;99550.44;5031018;28;20491;-67
2021/12/07 03:47:32;;;;;;;14.95;5.72;;;;;;;-3.97;100.00;99552.22;5053601;28;20139;-74
2021/12/07 03:49:58;;;;;;;17.85;7.50;;;;;;;-3.94;100.00;99548.59;5043594;28;20048;-71
2021/12/07 03:52:25;;;;;;;19.77;6.45;;;;;;;-3.91;100.00;99549.34;5017901;28;20041;-68
2021/12/07 03:54:51;;;;;;;12.95;5.32;;;;;;;-3.91;100.00;99549.34;5027071;28;20044;-73
2021/12/07 03:57:17;;;;;;;14.68;5.85;;;;;;;-4.03;100.00;99527.84;5031198;28;20037;-67
2021/12/07 03:59:44;;;;;;;20.30;6.90;;;;;;;-4.02;100.00;99521.63;5034736;28;20197;-73
2021/12/07 04:02:11;;;;;;;18.42;5.93;;;;;;;-3.97;100.00;99519.69;5037895;28;20048;-72
2021/12/07 04:04:38;;;;;;;15.38;6.22;;;;;;;-3.80;100.00;99545.34;5058566;28;20044;-72
2021/12/07 04:07:05;;;;;;;17.80;6.72;;;;;;;-3.84;100.00;99528.78;5038192;28;20210;-75
2021/12/07 04:09:32;;;;;;;15.45;5.93;;;;;;;-3.81;100.00;99533.94;5009431;28;20500;-70
2021/12/07 04:11:59;;;;;;;15.00;4.97;;;;;;;-3.96;100.00;99497.63;5032426;28;20405;-67
2021/12/07 04:14:25;;;;;;;14.38;6.40;;;;;;;-3.80;100.00;99518.94;5037234;28;20131;-68
2021/12/07 04:16:51;;;;;;;15.68;6.43;;;;;;;-3.89;100.00;99497.28;5049078;28;20052;-68
2021/12/07 04:19:17;;;;;;;14.77;6.15;;;;;;;-3.78;100.00;99507.41;5040906;28;20041;-73
2021/12/07 04:21:44;;;;;;;11.80;5.13;;;;;;;-3.78;100.00;99512.69;5034701;28;20048;-74
2021/12/07 04:24:12;;;;;;;12.95;5.57;;;;;;;-3.77;100.00;99509.13;5035934;28;20040;-73
2021/12/07 04:26:38;;;;;;;14.73;5.63;;;;;;;-3.78;100.00;99499.47;5034503;28;20047;-74
2021/12/07 04:29:04;;;;;;;15.77;6.43;;;;;;;-3.90;100.00;99473.63;5058410;28;20037;-68
2021/12/07 04:31:30;;;;;;;13.00;5.63;;;;;;;-3.74;100.00;99500.22;5056909;28;20051;-70
2021/12/07 04:33:56;;;;;;;11.80;4.47;;;;;;;-3.90;100.00;99455.13;5027723;28;20064;-73
2021/12/07 04:36:22;;;;;;;15.70;6.47;;;;;;;-3.82;100.00;99466.22;5050579;28;20055;-69
2021/12/07 04:38:48;;;;;;;16.67;6.15;;;;;;;-3.70;100.00;99484.16;5048781;28;20266;-70
2021/12/07 04:41:14;;;;;;;14.88;6.15;;;;;;;-3.69;100.00;99480.63;5035259;28;20060;-69
2021/12/07 04:43:40;;;;;;;17.00;6.95;;;;;;;-3.63;100.00;99477.69;5054282;28;20385;-69
2021/12/07 04:46:15;;;;;;;19.80;6.78;;;;;;;-3.59;100.00;99474.91;5062099;28;20048;-71
2021/12/07 04:59:32;;;;;;;17.67;5.93;;;;;;;-3.59;100.00;99443.22;5052198;28;20131;-68
2021/12/07 05:01:58;;;;;;;14.05;3.92;;;;;;;-3.57;100.00;99447.53;5013137;28;20519;-68
2021/12/07 05:04:28;;;;;;;13.02;4.32;;;;;;;-3.54;100.00;99441.25;5034686;28;20045;-67
2021/12/07 05:07:01;;;;;;;11.43;4.13;;;;;;;-3.71;100.00;99408.50;5041771;28;20412;-69
2021/12/07 05:14:30;;;;;;;10.65;3.60;;;;;;;-3.63;100.00;99410.78;5041966;28;20066;-69
2021/12/07 05:17:20;;;;;;;17.95;6.97;;;;;;;-3.45;100.00;99443.47;5032953;28;20048;-68
2021/12/07 05:38:44;;;;;;;15.40;4.90;;;;;;;-3.46;100.00;99407.41;5063715;28;20037;-66
2021/12/07 05:41:10;;;;;;;15.57;5.95;;;;;;;-3.38;100.00;99421.13;5043266;28;20071;-68
2021/12/07 05:43:37;;;;;;;16.33;5.60;;;;;;;-3.36;100.00;99405.19;5023502;28;20056;-68
2021/12/07 05:46:05;;;;;;;17.88;7.68;;;;;;;-3.35;100.00;99430.72;5070745;28;20048;-67
2021/12/07 05:48:31;;;;;;;19.92;6.63;;;;;;;-3.34;100.00;99409.50;5062656;28;20354;-67
2021/12/07 05:50:57;;;;;;;13.48;5.38;;;;;;;-3.45;100.00;99398.56;5016145;28;20071;-67
2021/12/07 05:53:23;;;;;;;14.95;6.00;;;;;;;-3.30;100.00;99392.56;5051071;28;20052;-68
2021/12/07 05:55:49;;;;;;;17.33;7.03;;;;;;;-3.39;100.00;99382.44;5017178;28;20076;-69
2021/12/07 05:58:15;;;;;;;11.82;4.90;;;;;;;-3.39;100.00;99371.84;5032450;28;20041;-68
2021/12/07 06:00:44;;;;;;;18.23;7.70;;;;;;;-3.27;100.00;99412.72;5017573;28;20052;-68
2021/12/07 06:03:11;;;;;;;15.45;7.03;;;;;;;-3.28;100.00;99393.34;5050850;28;20040;-67
2021/12/07 06:05:38;;;;;;;15.25;6.28;;;;;;;-3.25;100.00;99401.16;5064419;28;20044;-70
2021/12/07 06:08:05;;;;;;;18.63;7.22;;;;;;;-3.28;100.00;99405.72;5065078;28;20360;-67
2021/12/07 06:10:31;;;;;;;15.55;6.57;;;;;;;-3.26;100.00;99396.78;5043246;28;20101;-65
2021/12/07 06:12:57;;;;;;;13.82;4.65;;;;;;;-3.31;100.00;99377.63;5057626;28;20045;-67
2021/12/07 06:15:24;;;;;;;11.48;3.95;;;;;;;-3.20;100.00;99388.56;5007008;28;20075;-64
2021/12/07 06:17:51;;;;;;;17.45;6.03;;;;;;;-3.21;100.00;99392.16;5063966;28;20110;-65
2021/12/07 06:20:17;;;;;;;17.08;6.40;;;;;;;-3.15;100.00;99407.69;5073852;28;20048;-72
2021/12/07 06:22:43;;;;;;;15.30;6.57;;;;;;;-3.24;100.00;99392.28;5059358;28;20098;-65
2021/12/07 06:25:10;;;;;;;17.88;6.07;;;;;;;-3.15;100.00;99394.47;5028458;28;20037;-66
2021/12/07 06:27:37;;;;;;;14.68;5.45;;;;;;;-3.24;100.00;99392.28;5050312;28;20448;-65
2021/12/07 06:30:04;;;;;;;17.40;6.60;;;;;;;-3.45;100.00;99366.84;5061391;28;20049;-66
2021/12/07 06:32:30;;;;;;;16.20;6.60;;;;;;;-3.21;100.00;99402.72;5037308;28;20125;-66
2021/12/07 06:34:56;;;;;;;14.25;5.43;;;;;;;-3.16;100.00;99416.56;5067698;28;20087;-67
2021/12/07 06:37:21;;;;;;;12.10;4.93;;;;;;;-3.15;100.00;99407.69;5066722;28;20574;-65
2021/12/07 06:39:47;;;;;;;15.05;7.13;;;;;;;-3.16;100.00;99392.78;5038379;28;20048;-67
2021/12/07 06:42:13;;;;;;;15.05;5.63;;;;;;;-3.09;100.00;99395.16;5051870;28;20499;-66
2021/12/07 06:44:39;;;;;;;14.95;5.55;;;;;;;-3.10;100.00;99393.44;5061848;28;20170;-66
2021/12/07 06:47:05;;;;;;;16.75;6.30;;;;;;;-3.08;100.00;99391.56;5026964;28;20051;-65
2021/12/07 06:49:37;;;;;;;14.73;5.28;;;;;;;-3.08;100.00;99387.13;5048868;28;20487;-65
2021/12/07 06:52:03;;;;;;;19.25;5.43;;;;;;;-3.00;100.00;99386.75;5073654;28;20127;-64
2021/12/07 06:54:29;;;;;;;14.15;4.43;;;;;;;-2.94;100.00;99375.91;5042098;28;20398;-63
2021/12/07 06:56:55;;;;;;;13.35;5.82;;;;;;;-3.01;100.00;99366.53;5065438;28;20055;-65
2021/12/07 06:59:21;;;;;;;11.88;4.65;;;;;;;-2.93;100.00;99381.09;5070007;28;20044;-66
2021/12/07 07:01:48;;;;;;;12.23;4.90;;;;;;;-3.04;100.00;99345.53;5066234;28;20051;-65
2021/12/07 07:04:14;;;;;;;13.68;4.75;;;;;;;-2.83;100.00;99368.31;5072283;28;20408;-63
2021/12/07 07:06:41;;;;;;;15.23;5.38;;;;;;;-2.95;100.00;99350.41;5053235;28;20048;-64
2021/12/07 07:09:07;;;;;;;9.63;3.47;;;;;;;-2.85;100.00;99367.53;5043169;28;20147;-64
2021/12/07 07:11:33;;;;;;;12.88;4.13;;;;;;;-2.80;100.00;99367.31;5062266;28;20476;-64
2021/12/07 07:14:00;;;;;;;13.73;4.82;;;;;;;-2.78;100.00;99382.19;5058500;28;20048;-65
2021/12/07 07:16:26;;;;;;;10.80;3.97;;;;;;;-2.77;100.00;99375.94;5053111;28;20075;-65
2021/12/07 07:18:51;;;;;;;10.95;4.72;;;;;;;-2.85;100.00;99367.53;5052787;28;20500;-65
2021/12/07 07:21:17;;;;;;;12.25;4.57;;;;;;;-2.93;100.00;99370.53;5034921;28;20412;-66
2021/12/07 07:23:43;;;;;;;11.82;5.22;;;;;;;-2.84;100.00;99373.69;5052673;28;20072;-64
2021/12/07 07:26:09;;;;;;;13.95;6.20;;;;;;;-2.87;100.00;99364.09;5052858;28;20139;-65
2021/12/07 07:28:35;;;;;;;14.75;4.28;;;;;;;-2.81;100.00;99377.03;5052143;28;20124;-64
2021/12/07 07:31:03;;;;;;;14.07;5.22;;;;;;;-2.76;100.00;99369.72;5034740;28;20049;-65
2021/12/07 07:33:29;;;;;;;13.95;4.63;;;;;;;-2.77;100.00;99359.22;5052378;28;20385;-64
2021/12/07 07:35:55;;;;;;;12.65;5.75;;;;;;;-2.83;100.00;99355.09;5052224;28;20048;-64
2021/12/07 07:38:21;;;;;;;10.10;4.13;;;;;;;-2.92;100.00;99323.81;5064126;28;20162;-64
2021/12/07 07:40:46;;;;;;;11.65;4.13;;;;;;;-2.76;100.00;99337.97;5072286;28;20097;-65
2021/12/07 07:43:16;;;;;;;11.65;4.35;;;;;;;-2.62;100.00;99363.75;5054545;28;20040;-65
2021/12/07 07:45:56;;;;;;;13.60;5.03;;;;;;;-2.65;100.00;99347.19;5071058;28;20139;-65
2021/12/07 07:48:22;;;;;;;13.23;5.18;;;;;;;-2.77;100.00;99354.78;5072917;28;20098;-66
2021/12/07 07:50:50;;;;;;;12.20;4.60;;;;;;;-2.71;100.00;99365.06;5070809;28;20051;-65
2021/12/07 07:53:16;;;;;;;11.50;4.07;;;;;;;-2.73;100.00;99335.19;5071889;28;20040;-65
2021/12/07 07:55:42;;;;;;;11.50;4.45;;;;;;;-2.67;100.00;99350.78;5053945;28;20090;-64
2021/12/07 07:58:10;;;;;;;11.40;4.50;;;;;;;-2.54;100.00;99351.00;5054039;28;20040;-65
2021/12/07 08:00:36;;;;;;;13.40;4.97;;;;;;;-2.61;100.00;99351.38;5072501;28;20036;-64
2021/12/07 08:03:03;;;;;;;11.73;4.25;;;;;;;-2.44;100.00;99354.06;5072350;28;20041;-65
2021/12/07 08:05:29;;;;;;;10.70;4.45;;;;;;;-2.41;100.00;99345.97;5071576;28;20041;-65
2021/12/07 08:07:56;;;;;;;11.48;4.43;;;;;;;-2.33;100.00;99351.72;5072676;28;20269;-65
2021/12/07 08:10:28;;;;;;;12.48;3.78;;;;;;;-2.40;100.00;99329.16;5072179;28;20052;-65
2021/12/07 08:12:57;;;;;;;10.40;4.35;;;;;;;-2.36;100.00;99353.66;5071977;28;20041;-65
2021/12/07 08:15:27;;;;;;;10.95;4.60;;;;;;;-2.37;100.00;99344.88;5063323;28;20041;-64
2021/12/07 08:17:54;;;;;;;11.63;4.32;;;;;;;-2.44;100.00;99341.69;5052386;28;20102;-65
2021/12/07 08:20:21;;;;;;;12.02;4.72;;;;;;;-2.62;100.00;99294.13;5033547;28;20175;-65
2021/12/07 08:22:47;;;;;;;11.48;4.53;;;;;;;-2.40;100.00;99323.84;5052011;28;20072;-66
2021/12/07 08:25:14;;;;;;;10.95;3.90;;;;;;;-2.40;100.00;99337.09;5054606;28;20051;-65
2021/12/07 08:27:39;;;;;;;12.32;5.20;;;;;;;-2.43;100.00;99308.13;5051338;28;20045;-65
2021/12/07 08:30:07;;;;;;;12.40;4.70;;;;;;;-2.22;100.00;99333.50;5033164;28;20049;-65
2021/12/07 08:32:33;;;;;;;12.77;5.57;;;;;;;-2.40;100.00;99299.19;5051550;28;20396;-65
2021/12/07 08:34:59;;;;;;;11.88;4.72;;;;;;;-2.27;100.00;99342.59;5049110;28;20596;-64
2021/12/07 08:37:25;;;;;;;11.27;4.72;;;;;;;-2.30;100.00;99327.75;5052535;28;20045;-65
2021/12/07 08:39:51;;;;;;;9.90;3.45;;;;;;;-2.27;100.00;99332.84;5053909;28;20526;-65
2021/12/07 08:42:17;;;;;;;10.90;4.40;;;;;;;-2.30;100.00;99348.94;5051980;28;20048;-64
2021/12/07 08:44:43;;;;;;;10.52;4.20;;;;;;;-2.23;100.00;99329.16;5050772;28;20044;-64
2021/12/07 08:47:09;;;;;;;11.02;3.95;;;;;;;-2.34;100.00;99307.66;5036503;28;20076;-64
2021/12/07 08:49:34;;;;;;;13.35;4.97;;;;;;;-2.34;100.00;99326.19;5071812;28;20123;-64
2021/12/07 08:52:00;;;;;;;13.38;4.50;;;;;;;-2.39;100.00;99301.72;5071374;28;20571;-64
2021/12/07 08:59:35;;;;;;;9.90;3.65;;;;;;;-2.38;100.00;99310.53;5053147;28;20047;-64
2021/12/07 08:59:57;;;;;;;10.00;3.65;;;;;;;-2.49;100.00;99279.31;5041615;28;20044;-64
2021/12/07 09:02:25;;;;;;;10.82;4.75;;;;;;;-2.49;100.00;99268.72;5070859;28;20518;-64
2021/12/07 09:04:53;;;;;;;10.43;3.83;;;;;;;-2.45;100.00;99270.28;5060092;28;20048;-65
2021/12/07 09:07:19;;;;;;;11.30;3.88;;;;;;;-2.22;100.00;99316.75;5049574;28;20061;-64
2021/12/07 09:09:46;;;;;;;9.75;4.45;;;;;;;-2.23;100.00;99291.19;5049680;28;20047;-62
2021/12/07 09:12:14;;;;;;;11.10;4.10;;;;;;;-2.23;100.00;99302.66;5050907;28;20060;-64
2021/12/07 09:14:42;;;;;;;10.52;4.18;;;;;;;-2.27;100.00;99309.03;5050262;28;20118;-64
2021/12/07 09:17:08;;;;;;;9.57;3.45;;;;;;;-2.24;100.00;99289.50;5050856;28;20041;-68
2021/12/07 09:19:34;;;;;;;9.77;3.50;;;;;;;-2.36;100.00;99253.94;5051258;28;20056;-64
2021/12/07 09:22:01;;;;;;;10.10;3.30;;;;;;;-2.13;100.00;99286.28;5051567;28;20140;-64
2021/12/07 09:24:27;;;;;;;10.18;3.70;;;;;;;-2.11;100.00;99276.50;5035548;28;20456;-66
2021/12/07 09:26:53;;;;;;;10.38;3.70;;;;;;;-2.08;100.00;99290.41;5053277;28;20067;-64
2021/12/07 09:29:19;;;;;;;9.27;3.70;;;;;;;-2.13;100.00;99281.00;5070808;28;20044;-64
2021/12/07 09:31:46;;;;;;;10.20;3.92;;;;;;;-2.13;100.00;99281.00;5070583;28;20044;-65
2021/12/07 09:34:12;;;;;;;8.95;3.30;;;;;;;-2.07;100.00;99270.09;5052495;28;20049;-65
2021/12/07 09:36:40;;;;;;;10.30;3.78;;;;;;;-2.28;100.00;99243.78;5051981;28;20044;-65
2021/12/07 09:39:08;;;;;;;9.68;3.97;;;;;;;-2.19;100.00;99267.16;5052374;28;20516;-65
2021/12/07 09:41:37;;;;;;;9.77;4.03;;;;;;;-2.17;100.00;99267.06;5070120;28;20474;-65
2021/12/07 09:44:06;;;;;;;10.95;4.30;;;;;;;-2.19;100.00;99267.16;5052731;28;20044;-65
2021/12/07 09:46:32;;;;;;;11.90;4.38;;;;;;;-2.13;100.00;99268.59;5052043;28;20139;-65
2021/12/07 09:48:58;;;;;;;11.00;4.05;;;;;;;-2.22;100.00;99240.84;5052398;28;20052;-65
2021/12/07 09:51:27;;;;;;;10.13;3.85;;;;;;;-2.09;100.00;99256.06;5035726;28;20075;-65
2021/12/07 09:53:54;;;;;;;11.95;4.30;;;;;;;-2.27;100.00;99245.50;5052445;28;20041;-65
2021/12/07 09:56:21;;;;;;;8.68;3.45;;;;;;;-2.16;100.00;99250.22;5074301;28;20055;-65
2021/12/07 09:58:49;;;;;;;11.10;4.75;;;;;;;-2.08;100.00;99257.78;5055722;28;20116;-65
2021/12/07 10:01:16;;;;;;;12.20;4.78;;;;;;;-2.13;100.00;99243.91;5039389;28;20154;-65
2021/12/07 10:03:44;;;;;;;10.20;4.22;;;;;;;-2.06;100.00;99261.19;5054870;28;20047;-65
2021/12/07 10:06:10;;;;;;;10.98;4.68;;;;;;;-1.97;100.00;99256.28;5074674;28;20040;-65
2021/12/07 10:08:36;;;;;;;11.32;4.72;;;;;;;-2.06;100.00;99255.91;5074354;28;20093;-65
2021/12/07 10:11:04;;;;;;;10.10;4.00;;;;;;;-2.06;100.00;99250.59;5073902;28;20051;-65
2021/12/07 10:13:31;;;;;;;12.52;4.68;;;;;;;-2.23;100.00;99228.53;5023832;28;20098;-65
2021/12/07 10:15:59;;;;;;;11.25;4.32;;;;;;;-2.15;100.00;99237.88;5054053;28;20496;-65
2021/12/07 10:18:29;;;;;;;9.57;3.90;;;;;;;-2.03;100.00;99255.75;5053616;28;20510;-65
2021/12/07 10:20:59;;;;;;;10.75;4.35;;;;;;;-2.03;100.00;99256.59;5054012;28;20120;-65
2021/12/07 10:23:37;;;;;;;10.35;4.32;;;;;;;-2.12;100.00;99235.03;5056946;28;20044;-67
2021/12/07 10:26:08;;;;;;;13.05;5.00;;;;;;;-1.98;100.00;99256.34;5056361;28;20048;-64
2021/12/07 10:28:35;;;;;;;10.98;5.13;;;;;;;-2.00;100.00;99242.34;5055422;28;20048;-65
2021/12/07 10:31:07;;;;;;;11.70;5.05;;;;;;;-2.01;100.00;99254.72;5055721;28;20135;-64
2021/12/07 10:34:05;;;;;;;13.73;4.82;;;;;;;-2.02;100.00;99246.84;5073349;28;20450;-65
2021/12/07 10:36:45;;;;;;;13.05;4.82;;;;;;;-2.01;100.00;99243.25;5057556;28;20087;-65
2021/12/07 10:39:16;;;;;;;12.75;4.35;;;;;;;-1.97;100.00;99247.47;5073516;28;20080;-66
2021/12/07 10:41:55;;;;;;;10.75;4.40;;;;;;;-2.00;100.00;99232.59;5055395;28;20054;-65
2021/12/07 10:44:26;;;;;;;11.88;4.72;;;;;;;-1.99;100.00;99221.06;5074046;28;20047;-64
2021/12/07 10:47:03;;;;;;;10.85;4.32;;;;;;;-1.90;100.00;99246.22;5073738;28;20067;-65
2021/12/07 10:49:33;;;;;;;14.48;6.05;;;;;;;-1.95;100.00;99242.94;5073389;28;20052;-65
2021/12/07 10:52:08;;;;;;;10.60;4.32;;;;;;;-1.92;100.00;99242.78;5055831;28;20045;-64
2021/12/07 10:54:39;;;;;;;10.85;4.20;;;;;;;-2.04;100.00;99215.16;5053181;28;20119;-65
2021/12/07 10:57:07;;;;;;;10.13;4.28;;;;;;;-1.89;100.00;99242.63;5018568;28;20130;-65
2021/12/07 10:59:33;;;;;;;10.07;4.45;;;;;;;-1.96;100.00;99210.31;5053087;28;20563;-65
2021/12/07 11:02:10;;;;;;;10.90;4.72;;;;;;;-1.92;100.00;99221.59;5070918;28;20201;-65
2021/12/07 11:04:37;;;;;;;11.75;4.20;;;;;;;-1.90;100.00;99229.44;5054608;28;20052;-64
2021/12/07 11:07:11;;;;;;;12.23;4.95;;;;;;;-1.89;100.00;99228.53;5073216;28;20048;-65
2021/12/07 11:09:57;;;;;;;11.27;4.75;;;;;;;-1.90;100.00;99240.91;5072818;28;20089;-65
2021/12/07 11:12:25;;;;;;;11.50;4.50;;;;;;;-1.88;100.00;99233.72;5073088;28;20051;-65
2021/12/07 11:14:56;;;;;;;10.20;4.72;;;;;;;-1.95;100.00;99230.53;5054765;28;20052;-65
2021/12/07 11:17:31;;;;;;;11.18;4.45;;;;;;;-1.86;100.00;99215.97;5072379;28;20139;-65
2021/12/07 11:19:57;;;;;;;10.75;4.53;;;;;;;-1.87;100.00;99224.81;5063361;28;20520;-65
2021/12/07 11:22:25;;;;;;;12.48;4.78;;;;;;;-1.83;100.00;99226.41;5052895;28;20045;-65
2021/12/07 11:24:54;;;;;;;13.30;5.75;;;;;;;-1.83;100.00;99221.09;5034794;28;20070;-65
2021/12/07 11:30:08;;;;;;;11.77;4.93;;;;;;;-1.76;100.00;99225.09;5062400;28;20130;-65
2021/12/07 11:32:35;;;;;;;12.18;4.68;;;;;;;-1.86;100.00;99202.72;5072582;28;20105;-64
2021/12/07 11:35:10;;;;;;;11.82;4.38;;;;;;;-1.78;100.00;99216.38;5072305;28;20499;-65
2021/12/07 11:37:38;;;;;;;14.77;4.68;;;;;;;-1.67;100.00;99225.53;5037985;28;20505;-65
2021/12/07 11:40:06;;;;;;;15.43;5.57;;;;;;;-1.75;100.00;99218.88;5069166;28;20057;-65
2021/12/07 11:42:37;;;;;;;13.40;5.70;;;;;;;-1.72;100.00;99224.00;5038254;28;20541;-65
2021/12/07 11:45:12;;;;;;;14.25;6.57;;;;;;;-1.85;100.00;99204.41;5072337;28;20032;-65
2021/12/07 11:47:39;;;;;;;15.80;5.95;;;;;;;-1.86;100.00;99199.22;5072559;28;20131;-65
2021/12/07 11:50:17;;;;;;;13.60;6.18;;;;;;;-1.72;100.00;99224.00;5053450;28;20159;-65
2021/12/07 11:52:45;;;;;;;15.10;5.97;;;;;;;-1.69;100.00;99217.66;5072526;28;20052;-64
2021/12/07 11:55:11;;;;;;;12.82;5.95;;;;;;;-1.64;100.00;99220.09;5072568;28;20062;-65
2021/12/07 11:57:38;;;;;;;12.77;4.93;;;;;;;-1.58;100.00;99235.63;5053670;28;20511;-65
2021/12/07 12:00:07;;;;;;;13.80;5.68;;;;;;;-1.61;100.00;99239.31;5049452;28;20045;-65
2021/12/07 12:02:35;;;;;;;13.80;5.95;;;;;;;-1.68;100.00;99223.81;5052228;28;20120;-65
2021/12/07 12:05:02;;;;;;;13.27;5.25;;;;;;;-1.54;100.00;99231.84;5051990;28;20094;-65
2021/12/07 12:07:29;;;;;;;14.52;6.07;;;;;;;-1.55;100.00;99224.84;5034335;28;20614;-65
2021/12/07 12:09:54;;;;;;;12.63;5.10;;;;;;;-1.59;100.00;99220.66;5057564;28;20127;-65
2021/12/07 12:12:42;;;;;;;13.25;5.85;;;;;;;-1.60;100.00;99222.47;5054314;28;20418;-65
2021/12/07 12:15:32;;;;;;;13.23;5.40;;;;;;;-1.57;100.00;99232.03;5070958;28;20040;-65
2021/12/07 12:18:09;;;;;;;13.07;4.97;;;;;;;-1.57;100.00;99242.63;5053717;28;20052;-65
2021/12/07 12:20:47;;;;;;;13.73;5.47;;;;;;;-1.51;100.00;99258.19;5042094;28;20084;-66
2021/12/07 12:23:47;;;;;;;12.40;4.95;;;;;;;-1.56;100.00;99239.91;5050774;28;20565;-65
2021/12/07 12:26:13;;;;;;;15.27;6.18;;;;;;;-1.54;100.00;99238.00;5034353;28;20076;-65
2021/12/07 12:28:42;;;;;;;15.20;5.57;;;;;;;-1.73;100.00;99211.69;5033434;28;20044;-65
2021/12/07 12:31:09;;;;;;;12.52;5.55;;;;;;;-1.57;100.00;99237.31;5046807;28;20063;-65
2021/12/07 12:33:53;;;;;;;15.50;5.50;;;;;;;-1.48;100.00;99242.97;5041949;28;20079;-65
2021/12/07 12:36:20;;;;;;;14.30;4.95;;;;;;;-1.52;100.00;99237.94;5046017;28;20087;-65
2021/12/07 12:38:57;;;;;;;13.93;5.85;;;;;;;-1.59;100.00;99231.28;5032726;28;20033;-66
2021/12/07 12:41:23;;;;;;;;;;;;;;;-1.46;100.00;99250.88;5054928;28;20044;-64
2021/12/07 12:43:55;;;;;;;14.00;6.30;;;;;;;-1.48;100.00;99252.72;5065467;28;19995;-65
2021/12/07 12:46:27;;;;;;;14.23;5.43;;;;;;;-1.46;100.00;99246.41;5057595;28;20044;-63
2021/12/07 12:48:56;;;;;;;14.20;6.22;;;;;;;-1.74;100.00;99204.69;5043554;28;20051;-64
2021/12/07 12:51:51;;;;;;;18.88;6.35;;;;;;;-1.45;100.00;99239.31;5067695;28;20401;-64
2021/12/07 12:54:19;;;;;;;15.88;5.88;;;;;;;-1.54;100.00;99231.84;5017124;28;20128;-66
2021/12/07 12:56:45;;;;;;;15.13;6.18;;;;;;;-1.37;100.00;99247.69;5030509;28;20106;-62
2021/12/07 12:59:12;;;;;;;13.77;6.32;;;;;;;-1.43;100.00;99240.06;5050924;28;20032;-65
2021/12/07 13:01:40;;;;;;;15.82;6.97;;;;;;;-1.40;100.00;99249.66;5054358;28;20428;-62